Time;durP1;ratioP1;P1;durP2;ratioP2;P2;SDS_P1;SDS_P2;PMS_P1;PMS_P2;Temp;Humidity;BMP_temperature;BMP_pressure;BME280_temperature;BME280_humidity;BME280_pressure;Samples;Min_cycle;Max_cycle;Signal;HPM_P1;HPM_P2
2021/06/16 00:01:36;;;;;;;20.05;15.02;;;24.80;93.30;;;;;;5073024;28;20040;-85
2021/06/16 00:04:03;;;;;;;18.92;14.75;;;24.80;93.30;;;;;;5054939;28;20031;-84
2021/06/16 00:06:29;;;;;;;18.83;14.75;;;24.80;93.40;;;;;;5054980;28;20055;-85
2021/06/16 00:08:54;;;;;;;17.70;14.63;;;24.80;93.30;;;;;;5054975;28;20068;-85
2021/06/16 00:11:20;;;;;;;17.48;14.80;;;24.80;93.30;;;;;;5054942;28;20029;-85
2021/06/16 00:13:46;;;;;;;19.40;14.25;;;24.80;93.40;;;;;;5038690;28;20475;-85
2021/06/16 00:16:12;;;;;;;18.85;14.05;;;24.80;93.50;;;;;;5038174;28;20048;-84
2021/06/16 00:18:38;;;;;;;17.25;13.95;;;24.80;93.60;;;;;;5054694;28;20082;-84
2021/06/16 00:21:03;;;;;;;19.30;14.80;;;24.80;93.60;;;;;;5038757;28;20093;-84
2021/06/16 00:23:29;;;;;;;18.40;14.20;;;24.80;93.60;;;;;;5037848;28;20028;-85
2021/06/16 00:25:55;;;;;;;17.52;13.88;;;24.80;93.70;;;;;;5038449;28;20033;-84
2021/06/16 00:28:20;;;;;;;18.60;14.38;;;24.80;93.70;;;;;;5038015;28;20458;-86
2021/06/16 00:30:46;;;;;;;18.88;14.82;;;24.80;93.70;;;;;;5038457;28;20475;-85
2021/06/16 00:33:12;;;;;;;19.60;14.35;;;24.90;93.70;;;;;;5054760;28;20029;-85
2021/06/16 00:35:37;;;;;;;20.92;15.68;;;24.90;93.70;;;;;;5038277;28;20056;-85
2021/06/16 00:38:03;;;;;;;20.30;15.82;;;24.90;93.70;;;;;;5055545;28;20098;-84
2021/06/16 00:40:30;;;;;;;19.77;14.95;;;24.80;93.70;;;;;;5055848;28;20033;-84
2021/06/16 00:43:00;;;;;;;22.52;15.85;;;24.80;93.70;;;;;;5072954;28;20025;-84
2021/06/16 00:45:27;;;;;;;20.63;15.30;;;24.80;93.70;;;;;;5072575;28;20028;-84
2021/06/16 00:47:57;;;;;;;20.33;15.30;;;24.90;93.70;;;;;;5054846;28;20109;-84
2021/06/16 00:50:31;;;;;;;21.55;15.73;;;24.80;93.70;;;;;;5054485;28;20037;-86
2021/06/16 00:52:57;;;;;;;18.90;14.65;;;24.90;93.70;;;;;;5072616;28;20047;-84
2021/06/16 00:55:23;;;;;;;18.23;14.50;;;24.80;93.70;;;;;;5072235;28;20514;-86
2021/06/16 00:57:49;;;;;;;16.25;14.00;;;24.80;93.70;;;;;;5056694;28;20032;-85
2021/06/16 01:00:27;;;;;;;18.58;14.15;;;24.80;93.70;;;;;;5058301;28;20035;-84
2021/06/16 01:03:11;;;;;;;16.75;13.52;;;24.90;93.70;;;;;;5058410;28;20459;-85
2021/06/16 01:05:41;;;;;;;19.30;14.75;;;24.80;93.60;;;;;;5057973;28;20028;-84
2021/06/16 01:08:08;;;;;;;17.60;13.55;;;24.80;93.60;;;;;;5075913;28;20037;-84
2021/06/16 01:10:40;;;;;;;18.45;14.45;;;24.80;93.60;;;;;;5041428;28;20063;-85
2021/06/16 01:13:37;;;;;;;18.05;13.18;;;24.80;93.60;;;;;;5058201;28;20031;-84
2021/06/16 01:16:16;;;;;;;16.83;13.73;;;24.80;93.80;;;;;;5057773;28;20051;-84
2021/06/16 01:18:49;;;;;;;16.98;13.48;;;24.80;93.60;;;;;;5075816;28;20028;-84
2021/06/16 01:21:16;;;;;;;18.15;13.32;;;24.80;93.60;;;;;;5076221;28;20021;-85
2021/06/16 01:24:01;;;;;;;17.05;13.38;;;24.80;93.60;;;;;;5041589;28;20031;-85
2021/06/16 01:26:42;;;;;;;;;;;24.80;93.60;;;;;;5058332;28;20523;-87
2021/06/16 01:29:32;;;;;;;17.15;12.48;;;24.80;93.60;;;;;;5057913;28;19919;-84
2021/06/16 01:32:00;;;;;;;17.25;13.48;;;24.70;93.60;;;;;;5076093;28;20056;-84
2021/06/16 01:34:27;;;;;;;19.05;14.02;;;24.70;93.70;;;;;;5075393;28;20028;-84
2021/06/16 01:36:55;;;;;;;17.77;13.27;;;24.70;93.70;;;;;;5075783;28;20033;-84
2021/06/16 01:39:23;;;;;;;15.88;12.20;;;24.80;93.70;;;;;;5075448;28;20116;-84
2021/06/16 01:41:54;;;;;;;16.85;12.45;;;24.80;93.70;;;;;;5041644;28;20082;-84
2021/06/16 01:44:21;;;;;;;18.25;12.70;;;24.80;93.70;;;;;;5058947;28;20025;-84
2021/06/16 01:46:50;;;;;;;16.60;12.60;;;24.80;93.70;;;;;;5057616;28;20033;-85
2021/06/16 01:49:17;;;;;;;16.25;12.00;;;24.80;93.70;;;;;;5075344;28;20058;-84
2021/06/16 01:51:43;;;;;;;16.33;11.70;;;24.80;93.90;;;;;;5056921;28;20123;-85
2021/06/16 01:54:10;;;;;;;14.00;11.23;;;24.80;93.70;;;;;;5057527;28;20056;-85
2021/06/16 01:56:38;;;;;;;15.80;11.35;;;24.80;93.70;;;;;;5057606;28;20111;-84
2021/06/16 01:59:07;;;;;;;15.57;11.52;;;24.80;93.70;;;;;;5075376;28;20043;-85
2021/06/16 02:01:34;;;;;;;15.95;11.63;;;24.80;93.70;;;;;;5074983;28;20466;-84
2021/06/16 02:04:00;;;;;;;14.85;11.02;;;24.80;93.70;;;;;;5057296;28;20024;-85
2021/06/16 02:06:35;;;;;;;14.48;10.90;;;24.80;93.70;;;;;;5040582;28;20036;-85
2021/06/16 02:09:04;;;;;;;14.27;10.77;;;24.80;93.70;;;;;;5057168;28;20036;-84
2021/06/16 02:11:31;;;;;;;14.23;10.93;;;24.80;93.70;;;;;;5074867;28;20039;-85
2021/06/16 02:14:00;;;;;;;13.05;10.30;;;24.80;93.70;;;;;;5057110;28;20081;-84
2021/06/16 02:16:43;;;;;;;15.20;10.63;;;24.80;93.60;;;;;;5053471;28;20515;-85
2021/06/16 02:19:14;;;;;;;13.90;10.45;;;24.80;93.60;;;;;;5070433;28;20467;-84
2021/06/16 02:21:40;;;;;;;14.80;10.75;;;24.70;93.60;;;;;;5070310;28;20057;-85
2021/06/16 02:24:10;;;;;;;15.45;10.63;;;24.80;93.60;;;;;;5054440;28;20042;-84
2021/06/16 02:26:36;;;;;;;13.98;10.45;;;24.70;93.50;;;;;;5036850;28;20036;-84
2021/06/16 02:29:11;;;;;;;14.35;11.15;;;24.80;93.50;;;;;;5053432;28;20037;-84
2021/06/16 02:31:39;;;;;;;12.88;10.10;;;24.70;93.50;;;;;;5069937;28;20120;-85
2021/06/16 02:34:05;;;;;;;13.55;10.43;;;24.70;93.40;;;;;;5069987;28;20033;-85
2021/06/16 02:36:36;;;;;;;14.73;10.85;;;24.70;93.40;;;;;;5036851;28;20044;-84
2021/06/16 02:39:07;;;;;;;13.50;10.32;;;24.70;93.40;;;;;;5070401;28;20040;-85
2021/06/16 02:41:34;;;;;;;14.82;10.93;;;24.70;93.40;;;;;;5054626;28;20085;-84
2021/06/16 02:44:02;;;;;;;14.23;10.38;;;24.70;93.40;;;;;;5069756;28;20073;-84
2021/06/16 02:46:29;;;;;;;14.60;10.77;;;24.70;93.60;;;;;;5069436;28;20021;-84
2021/06/16 02:48:57;;;;;;;15.10;11.23;;;24.70;93.40;;;;;;5069482;28;20556;-84
2021/06/16 02:51:23;;;;;;;14.27;11.30;;;24.70;93.30;;;;;;5054378;28;20024;-84
2021/06/16 02:53:50;;;;;;;15.05;11.73;;;24.70;93.30;;;;;;5053138;28;20482;-84
2021/06/16 02:56:16;;;;;;;15.38;11.27;;;24.70;93.30;;;;;;5069771;28;20375;-84
2021/06/16 02:58:45;;;;;;;13.70;11.30;;;24.70;93.30;;;;;;5036155;28;20135;-84
2021/06/16 03:01:15;;;;;;;14.13;10.82;;;24.70;93.30;;;;;;5054243;28;20035;-84
2021/06/16 03:03:43;;;;;;;15.55;11.23;;;24.70;93.30;;;;;;5073978;28;20107;-84
2021/06/16 03:06:10;;;;;;;14.10;10.95;;;24.70;93.30;;;;;;5054033;28;20379;-84
2021/06/16 03:08:37;;;;;;;16.88;11.23;;;24.70;93.30;;;;;;5052802;28;20040;-84
2021/06/16 03:11:04;;;;;;;16.42;11.68;;;24.70;93.30;;;;;;5069322;28;20533;-85
2021/06/16 03:13:30;;;;;;;16.63;11.05;;;24.70;93.30;;;;;;5052731;28;20032;-85
2021/06/16 03:15:57;;;;;;;14.02;10.93;;;24.70;93.30;;;;;;5035710;28;20055;-85
2021/06/16 03:18:24;;;;;;;15.18;11.60;;;24.70;93.30;;;;;;5052956;28;20044;-84
2021/06/16 03:20:53;;;;;;;13.90;10.43;;;24.70;93.20;;;;;;5053004;28;20032;-85
2021/06/16 03:23:20;;;;;;;17.10;12.13;;;24.70;93.20;;;;;;5069166;28;20029;-85
2021/06/16 03:25:46;;;;;;;17.13;11.68;;;24.70;93.20;;;;;;5068979;28;20056;-85
2021/06/16 03:28:14;;;;;;;14.65;11.10;;;24.70;93.30;;;;;;5052554;28;20090;-84
2021/06/16 03:30:40;;;;;;;13.32;10.85;;;24.60;93.30;;;;;;5069183;28;20025;-86
2021/06/16 03:33:06;;;;;;;13.85;10.20;;;24.70;93.40;;;;;;5052661;28;20517;-84
2021/06/16 03:35:32;;;;;;;12.75;10.27;;;24.70;93.40;;;;;;5035824;28;20043;-85
2021/06/16 03:38:01;;;;;;;14.35;10.05;;;24.70;93.40;;;;;;5052462;28;20467;-85
2021/06/16 03:40:28;;;;;;;13.02;10.43;;;24.70;93.40;;;;;;5068945;28;20021;-85
2021/06/16 03:42:56;;;;;;;13.02;10.50;;;24.70;93.40;;;;;;5068795;28;20036;-85
2021/06/16 03:45:23;;;;;;;13.32;9.90;;;24.70;93.40;;;;;;5069124;28;20036;-84
2021/06/16 03:47:53;;;;;;;13.63;9.80;;;24.70;93.40;;;;;;5051754;28;20154;-84
2021/06/16 03:50:20;;;;;;;12.00;9.23;;;24.70;93.40;;;;;;5053195;28;20104;-83
2021/06/16 03:52:46;;;;;;;12.18;8.82;;;24.70;93.40;;;;;;5052688;28;20024;-85
2021/06/16 03:55:15;;;;;;;12.85;9.82;;;24.70;93.40;;;;;;5035406;28;20123;-85
2021/06/16 03:57:41;;;;;;;13.38;9.32;;;24.70;93.40;;;;;;5035930;28;20033;-85
2021/06/16 04:00:09;;;;;;;12.60;9.07;;;24.70;93.30;;;;;;5035754;28;20123;-84
2021/06/16 04:02:35;;;;;;;11.15;8.80;;;24.70;93.30;;;;;;5051734;28;20051;-84
2021/06/16 04:05:07;;;;;;;12.35;8.93;;;24.70;93.30;;;;;;5051770;28;20391;-84
2021/06/16 04:07:35;;;;;;;12.68;8.93;;;24.70;93.30;;;;;;5051617;28;20092;-84
2021/06/16 04:10:00;;;;;;;13.48;9.13;;;24.70;93.30;;;;;;5052010;28;20029;-84
2021/06/16 04:12:28;;;;;;;10.82;8.13;;;24.70;93.30;;;;;;5053360;28;20033;-84
2021/06/16 04:14:54;;;;;;;12.80;9.15;;;24.70;93.30;;;;;;5037576;28;20064;-84
2021/06/16 04:17:21;;;;;;;11.10;8.02;;;24.70;93.30;;;;;;5035771;28;20545;-84
2021/06/16 04:19:49;;;;;;;9.55;7.18;;;24.70;93.20;;;;;;5053368;28;20075;-85
2021/06/16 04:22:15;;;;;;;10.90;7.93;;;24.70;93.20;;;;;;5051636;28;20144;-84
2021/06/16 04:24:41;;;;;;;10.40;7.88;;;24.70;93.20;;;;;;5035317;28;20391;-84
2021/06/16 04:27:07;;;;;;;11.13;7.43;;;24.70;93.10;;;;;;5052072;28;20029;-85
2021/06/16 04:29:34;;;;;;;9.75;7.47;;;24.70;93.10;;;;;;5052997;28;20548;-84
2021/06/16 04:32:00;;;;;;;8.65;6.90;;;24.70;93.00;;;;;;5037970;28;20025;-85
2021/06/16 04:34:25;;;;;;;9.05;6.95;;;24.70;93.00;;;;;;5039571;28;20029;-84
2021/06/16 04:36:51;;;;;;;8.75;6.60;;;24.70;93.00;;;;;;5039315;28;20106;-84
2021/06/16 04:39:18;;;;;;;8.90;6.43;;;24.70;92.90;;;;;;5045284;28;20120;-83
2021/06/16 04:41:44;;;;;;;8.70;6.43;;;24.70;92.90;;;;;;5043685;28;20127;-84
2021/06/16 04:44:09;;;;;;;7.72;6.25;;;24.70;92.90;;;;;;5055730;28;20120;-83
2021/06/16 04:46:35;;;;;;;7.40;6.32;;;24.70;92.80;;;;;;5038760;28;20056;-85
2021/06/16 04:49:01;;;;;;;7.47;5.60;;;24.70;92.80;;;;;;5055779;28;20037;-84
2021/06/16 04:51:27;;;;;;;8.45;5.97;;;24.70;92.80;;;;;;5056131;28;20478;-85
2021/06/16 04:53:53;;;;;;;7.13;5.45;;;24.70;92.70;;;;;;5022524;28;20119;-86
2021/06/16 04:56:18;;;;;;;7.15;5.60;;;24.70;92.70;;;;;;5022594;28;20028;-85
2021/06/16 04:58:44;;;;;;;7.72;5.65;;;24.70;92.60;;;;;;5055878;28;20041;-84
2021/06/16 05:01:10;;;;;;;6.88;5.07;;;24.70;92.60;;;;;;5038780;28;20780;-84
2021/06/16 05:03:36;;;;;;;5.85;4.63;;;24.70;92.60;;;;;;5038913;28;20538;-84
2021/06/16 05:06:01;;;;;;;7.53;5.30;;;24.70;92.50;;;;;;5055091;28;20495;-85
2021/06/16 05:08:27;;;;;;;7.50;4.88;;;24.70;92.50;;;;;;5038676;28;20037;-85
2021/06/16 05:10:53;;;;;;;5.43;4.57;;;24.70;92.50;;;;;;5038786;28;20025;-85
2021/06/16 05:13:26;;;;;;;6.18;4.18;;;24.70;92.50;;;;;;5055535;28;20029;-84
2021/06/16 05:15:53;;;;;;;5.65;4.68;;;24.70;92.50;;;;;;5056615;28;20144;-86
2021/06/16 05:18:19;;;;;;;6.57;4.97;;;24.70;92.50;;;;;;5041560;28;20052;-84
2021/06/16 05:20:45;;;;;;;7.25;4.55;;;24.70;92.40;;;;;;5042342;28;20055;-84
2021/06/16 05:23:11;;;;;;;4.88;4.13;;;24.70;92.40;;;;;;5058543;28;20454;-84
2021/06/16 05:25:39;;;;;;;6.15;4.43;;;24.70;92.40;;;;;;5041637;28;20032;-84
2021/06/16 05:28:04;;;;;;;5.50;4.40;;;24.80;92.40;;;;;;5041513;28;20059;-84
2021/06/16 05:30:30;;;;;;;4.93;3.83;;;24.80;92.50;;;;;;5058862;28;20437;-84
2021/06/16 05:32:56;;;;;;;4.28;3.80;;;24.80;92.40;;;;;;5075734;28;20059;-84
2021/06/16 05:35:22;;;;;;;5.60;4.03;;;24.80;92.40;;;;;;5041814;28;20029;-84
2021/06/16 05:37:48;;;;;;;6.18;4.50;;;24.80;92.40;;;;;;5042197;28;20093;-84
2021/06/16 05:40:15;;;;;;;5.05;4.00;;;24.80;92.40;;;;;;5041077;28;20482;-84
2021/06/16 05:42:41;;;;;;;4.93;3.85;;;24.80;92.50;;;;;;5041147;28;20033;-84
2021/06/16 05:45:07;;;;;;;5.85;4.13;;;24.80;92.50;;;;;;5076189;28;20055;-84
2021/06/16 05:47:33;;;;;;;4.65;3.70;;;24.80;92.50;;;;;;5043622;28;20127;-84
2021/06/16 05:49:59;;;;;;;5.10;3.70;;;24.80;92.50;;;;;;5042751;28;20398;-84
2021/06/16 05:52:25;;;;;;;4.80;3.83;;;24.80;92.60;;;;;;5058302;28;20041;-85
2021/06/16 05:54:50;;;;;;;5.20;4.20;;;24.80;92.60;;;;;;5057374;28;20040;-84
2021/06/16 05:57:16;;;;;;;6.38;4.18;;;24.90;92.60;;;;;;5056927;28;20024;-85
2021/06/16 05:59:42;;;;;;;4.45;3.63;;;24.80;92.60;;;;;;5040957;28;20040;-84
2021/06/16 06:02:08;;;;;;;4.53;3.63;;;24.90;92.70;;;;;;5075266;28;20481;-85
2021/06/16 06:04:34;;;;;;;5.15;3.85;;;24.90;92.70;;;;;;5057603;28;20064;-85
2021/06/16 06:07:03;;;;;;;5.05;3.20;;;24.80;92.70;;;;;;5024290;28;20028;-86
2021/06/16 06:09:29;;;;;;;5.00;3.72;;;24.90;92.70;;;;;;5040918;28;20048;-84
2021/06/16 06:11:55;;;;;;;5.40;3.60;;;24.90;92.80;;;;;;5075321;28;20032;-85
2021/06/16 06:14:21;;;;;;;5.28;3.50;;;24.90;92.80;;;;;;5039950;28;20028;-85
2021/06/16 06:16:47;;;;;;;4.75;3.40;;;24.90;92.80;;;;;;5040311;28;20056;-85
2021/06/16 06:19:12;;;;;;;6.22;3.63;;;24.90;92.80;;;;;;5056627;28;20058;-85
2021/06/16 06:21:38;;;;;;;4.47;3.05;;;24.90;92.80;;;;;;5040570;28;20032;-85
2021/06/16 06:24:04;;;;;;;4.10;3.17;;;24.90;92.80;;;;;;5040224;28;20037;-86
2021/06/16 06:26:31;;;;;;;3.85;2.80;;;24.90;92.80;;;;;;5056886;28;20024;-85
2021/06/16 06:28:57;;;;;;;4.00;2.53;;;24.90;92.80;;;;;;5056930;28;20055;-85
2021/06/16 06:31:23;;;;;;;3.67;2.75;;;24.90;92.80;;;;;;5074634;28;20024;-85
2021/06/16 06:33:49;;;;;;;4.28;2.65;;;24.90;92.80;;;;;;5056870;28;20132;-85
2021/06/16 06:36:15;;;;;;;3.55;2.80;;;24.90;92.70;;;;;;5056774;28;20484;-85
2021/06/16 06:38:41;;;;;;;3.78;2.40;;;25.00;92.70;;;;;;5074795;28;20106;-85
2021/06/16 06:41:06;;;;;;;5.28;2.60;;;25.00;92.70;;;;;;5040076;28;20119;-86
2021/06/16 06:43:32;;;;;;;2.72;2.38;;;25.00;92.70;;;;;;5040021;28;20458;-85
2021/06/16 06:45:58;;;;;;;3.17;2.20;;;25.00;92.70;;;;;;5056843;28;20028;-85
2021/06/16 06:48:23;;;;;;;3.65;1.88;;;25.00;92.70;;;;;;5073879;28;20092;-86
2021/06/16 06:50:50;;;;;;;3.47;2.42;;;25.00;92.70;;;;;;5056802;28;20483;-86
2021/06/16 06:53:17;;;;;;;3.65;2.50;;;25.00;92.70;;;;;;5023469;28;20028;-86
2021/06/16 06:55:43;;;;;;;2.20;1.73;;;25.00;92.60;;;;;;5055411;28;20059;-85
2021/06/16 06:58:10;;;;;;;2.53;1.88;;;25.00;92.60;;;;;;5023195;28;20041;-85
2021/06/16 07:00:36;;;;;;;2.72;1.70;;;25.00;92.50;;;;;;5023448;28;20032;-84
2021/06/16 07:03:01;;;;;;;2.58;1.67;;;25.00;92.50;;;;;;5074429;28;20033;-86
2021/06/16 07:05:27;;;;;;;2.60;1.77;;;25.00;92.50;;;;;;5055975;28;20029;-86
2021/06/16 07:07:53;;;;;;;2.70;1.60;;;25.00;92.40;;;;;;5039164;28;20029;-85
2021/06/16 07:10:18;;;;;;;2.28;1.95;;;25.00;92.40;;;;;;5056237;28;20024;-86
2021/06/16 07:12:44;;;;;;;3.47;2.22;;;25.00;92.30;;;;;;5056311;28;20035;-85
2021/06/16 07:15:11;;;;;;;2.00;1.58;;;25.00;92.30;;;;;;5056152;28;20035;-86
2021/06/16 07:17:37;;;;;;;2.25;1.63;;;25.00;92.20;;;;;;5039604;28;20133;-86
2021/06/16 07:20:06;;;;;;;2.22;1.60;;;25.00;92.20;;;;;;5056514;28;20489;-86
2021/06/16 07:22:31;;;;;;;1.40;1.20;;;25.00;92.20;;;;;;5056307;28;20475;-86
2021/06/16 07:24:57;;;;;;;1.75;1.20;;;25.00;92.10;;;;;;5056147;28;20035;-85
2021/06/16 07:27:23;;;;;;;3.25;1.23;;;25.00;92.10;;;;;;5055808;28;20500;-86
2021/06/16 07:29:49;;;;;;;1.70;1.23;;;25.00;92.00;;;;;;5055511;28;20043;-86
2021/06/16 07:32:17;;;;;;;2.20;1.30;;;25.10;92.10;;;;;;5073152;28;20103;-86
2021/06/16 07:34:43;;;;;;;1.70;1.38;;;25.10;92.10;;;;;;5023545;28;20127;-86
2021/06/16 07:37:09;;;;;;;1.30;1.02;;;25.10;92.10;;;;;;5055326;28;20078;-87
2021/06/16 07:39:35;;;;;;;1.27;0.93;;;25.10;92.00;;;;;;5039505;28;20032;-85
2021/06/16 07:42:00;;;;;;;1.10;1.00;;;25.10;92.00;;;;;;5023102;28;20490;-86
2021/06/16 07:44:26;;;;;;;1.17;0.95;;;25.20;92.00;;;;;;5073580;28;20081;-84
2021/06/16 07:46:53;;;;;;;1.58;1.02;;;25.20;92.00;;;;;;5079713;28;20028;-86
2021/06/16 07:49:18;;;;;;;1.00;0.90;;;25.20;92.00;;;;;;5079923;28;20067;-86
2021/06/16 07:51:44;;;;;;;1.10;1.00;;;25.20;92.00;;;;;;5078914;28;20477;-84
2021/06/16 07:54:13;;;;;;;0.60;0.60;;;25.20;92.00;;;;;;5094145;28;20047;-87
2021/06/16 07:56:40;;;;;;;1.15;0.95;;;25.20;91.90;;;;;;5076570;28;20057;-85
2021/06/16 07:59:06;;;;;;;1.40;0.90;;;25.20;91.90;;;;;;5093547;28;20032;-84
2021/06/16 08:01:32;;;;;;;1.00;0.90;;;25.20;91.80;;;;;;5093066;28;20039;-85
2021/06/16 08:03:57;;;;;;;0.75;0.73;;;25.20;91.80;;;;;;5075618;28;20109;-85
2021/06/16 08:06:23;;;;;;;1.10;0.68;;;25.20;91.80;;;;;;5058304;28;20028;-85
2021/06/16 08:08:49;;;;;;;0.60;0.60;;;25.20;91.80;;;;;;5075550;28;20128;-85
2021/06/16 08:11:15;;;;;;;0.60;0.60;;;25.30;91.80;;;;;;5091814;28;20035;-85
2021/06/16 08:13:41;;;;;;;0.80;0.80;;;25.30;92.00;;;;;;5075740;28;20028;-85
2021/06/16 08:16:06;;;;;;;0.50;0.50;;;25.30;91.70;;;;;;5075685;28;20538;-86
2021/06/16 08:18:32;;;;;;;0.60;0.60;;;25.30;91.70;;;;;;5075265;28;20052;-87
2021/06/16 08:20:58;;;;;;;0.88;0.60;;;25.30;91.70;;;;;;5075824;28;20059;-85
2021/06/16 08:23:24;;;;;;;0.60;0.60;;;25.30;91.70;;;;;;5092770;28;20050;-85
2021/06/16 08:25:50;;;;;;;0.60;0.60;;;25.30;91.70;;;;;;5075844;28;20036;-85
2021/06/16 08:28:16;;;;;;;0.63;0.63;;;25.30;91.70;;;;;;5074784;28;20044;-85
2021/06/16 08:30:41;;;;;;;0.60;0.60;;;25.30;91.70;;;;;;5058903;28;20063;-84
2021/06/16 08:33:07;;;;;;;0.65;0.60;;;25.30;91.70;;;;;;5058567;28;20033;-85
2021/06/16 08:35:33;;;;;;;0.70;0.60;;;25.30;91.70;;;;;;5058411;28;20454;-85
2021/06/16 08:37:58;;;;;;;0.52;0.50;;;25.30;91.70;;;;;;5075084;28;20024;-85
2021/06/16 08:40:24;;;;;;;0.75;0.60;;;25.30;91.70;;;;;;5058399;28;20102;-85
2021/06/16 08:42:50;;;;;;;0.60;0.50;;;25.30;91.70;;;;;;5075200;28;20450;-85
2021/06/16 08:45:18;;;;;;;0.65;0.65;;;25.40;91.70;;;;;;5093826;28;20105;-88
2021/06/16 08:47:48;;;;;;;0.43;0.43;;;25.40;91.70;;;;;;5075567;28;20039;-85
2021/06/16 08:50:16;;;;;;;0.50;0.50;;;25.40;91.70;;;;;;5059000;28;20047;-85
2021/06/16 08:52:43;;;;;;;0.60;0.60;;;25.40;91.70;;;;;;5058357;28;20486;-84
2021/06/16 08:55:12;;;;;;;0.40;0.40;;;25.40;91.70;;;;;;5058284;28;20025;-85
2021/06/16 08:57:39;;;;;;;0.57;0.57;;;25.40;91.70;;;;;;5074468;28;20020;-84
2021/06/16 09:00:06;;;;;;;0.75;0.73;;;25.40;91.60;;;;;;5075343;28;20462;-85
2021/06/16 09:02:32;;;;;;;0.50;0.50;;;25.40;91.60;;;;;;5074676;28;20111;-85
2021/06/16 09:04:58;;;;;;;1.00;0.57;;;25.40;91.70;;;;;;5058459;28;20119;-85
2021/06/16 09:07:30;;;;;;;0.82;0.68;;;25.40;91.70;;;;;;5074866;28;20273;-85
2021/06/16 09:10:12;;;;;;;0.55;0.55;;;25.50;91.70;;;;;;5093384;28;20038;-84
2021/06/16 09:13:01;;;;;;;0.88;0.70;;;25.50;91.70;;;;;;5093432;28;20020;-84
2021/06/16 09:15:28;;;;;;;0.70;0.50;;;25.50;91.70;;;;;;5093429;28;20078;-86
2021/06/16 09:18:23;;;;;;;0.40;0.40;;;25.50;91.80;;;;;;5059784;28;20056;-85
2021/06/16 09:20:53;;;;;;;0.52;0.52;;;25.50;91.70;;;;;;5041518;28;20036;-86
2021/06/16 09:23:19;;;;;;;0.43;0.43;;;25.50;91.80;;;;;;5100353;28;20088;-85
2021/06/16 09:26:05;;;;;;;0.50;0.50;;;25.50;91.80;;;;;;5099057;28;20028;-85
2021/06/16 09:28:40;;;;;;;0.55;0.55;;;25.50;91.80;;;;;;5079954;28;20032;-84
2021/06/16 09:31:07;;;;;;;0.50;0.50;;;25.50;91.90;;;;;;5078658;28;20024;-85
2021/06/16 09:33:34;;;;;;;0.40;0.40;;;25.50;91.90;;;;;;5078491;28;20032;-85
2021/06/16 09:36:00;;;;;;;0.77;0.70;;;25.60;91.90;;;;;;5078129;28;20119;-85
2021/06/16 09:38:32;;;;;;;0.50;0.50;;;25.60;91.90;;;;;;5061045;28;20096;-85
2021/06/16 09:41:00;;;;;;;0.45;0.45;;;25.60;91.90;;;;;;5096662;28;20032;-85
2021/06/16 09:43:28;;;;;;;0.47;0.47;;;25.60;92.00;;;;;;5094576;28;20020;-85
2021/06/16 09:46:05;;;;;;;0.65;0.65;;;25.60;92.00;;;;;;5095315;28;20032;-85
2021/06/16 09:48:36;;;;;;;0.93;0.82;;;25.70;92.00;;;;;;5090011;28;20127;-85
2021/06/16 09:51:11;;;;;;;0.90;0.70;;;25.70;92.00;;;;;;5094521;28;20035;-85
2021/06/16 09:53:51;;;;;;;0.80;0.80;;;25.80;92.00;;;;;;5095543;28;20024;-85
2021/06/16 09:56:17;;;;;;;0.70;0.70;;;25.80;92.00;;;;;;5094744;28;20020;-85
2021/06/16 09:58:42;;;;;;;0.60;0.60;;;25.90;92.00;;;;;;5077806;28;20587;-85
2021/06/16 10:01:08;;;;;;;0.88;0.80;;;25.90;92.00;;;;;;5078153;28;20375;-85
2021/06/16 10:03:34;;;;;;;0.70;0.70;;;25.90;92.00;;;;;;5060795;28;20393;-84
2021/06/16 10:06:16;;;;;;;0.80;0.80;;;25.90;92.00;;;;;;5077670;28;20046;-84
2021/06/16 10:08:45;;;;;;;0.60;0.60;;;26.00;92.00;;;;;;5095462;28;20486;-85
2021/06/16 10:11:13;;;;;;;0.70;0.70;;;26.00;92.00;;;;;;5094348;28;20139;-85
2021/06/16 10:13:40;;;;;;;0.98;0.80;;;26.00;92.00;;;;;;5094189;28;20028;-85
2021/06/16 10:16:06;;;;;;;1.00;0.80;;;26.00;91.90;;;;;;5095531;28;20053;-84
2021/06/16 10:18:34;;;;;;;0.68;0.60;;;26.00;92.00;;;;;;5076499;28;20519;-84
2021/06/16 10:21:01;;;;;;;0.80;0.80;;;26.10;92.00;;;;;;5095473;28;20048;-84
2021/06/16 10:23:27;;;;;;;0.98;0.60;;;26.10;91.90;;;;;;5094113;28;20118;-85
2021/06/16 10:26:01;;;;;;;0.70;0.70;;;26.10;91.90;;;;;;5095202;28;20058;-85
2021/06/16 10:28:37;;;;;;;1.05;0.90;;;26.10;91.90;;;;;;5095303;28;20040;-84
2021/06/16 10:31:04;;;;;;;0.82;0.77;;;26.20;91.90;;;;;;5095489;28;20024;-84
2021/06/16 10:33:37;;;;;;;1.00;0.82;;;26.20;91.90;;;;;;5093258;28;20081;-85
2021/06/16 10:36:29;;;;;;;0.70;0.70;;;26.10;92.00;;;;;;5095795;28;20028;-84
2021/06/16 10:39:00;;;;;;;0.75;0.75;;;26.20;92.00;;;;;;5089272;28;20082;-84
2021/06/16 10:41:38;;;;;;;1.17;0.70;;;26.20;92.00;;;;;;5090696;28;20078;-84
2021/06/16 10:44:24;;;;;;;0.70;0.70;;;26.20;92.00;;;;;;5093575;28;20020;-84
2021/06/16 10:46:52;;;;;;;0.60;0.60;;;26.20;92.00;;;;;;5093175;28;20032;-84
2021/06/16 10:49:36;;;;;;;0.63;0.60;;;26.20;92.10;;;;;;5093701;28;20036;-85
2021/06/16 10:52:03;;;;;;;0.88;0.88;;;26.20;92.00;;;;;;5094973;28;20028;-84
2021/06/16 10:54:31;;;;;;;1.00;0.77;;;26.20;92.00;;;;;;5076605;28;20511;-84
2021/06/16 10:57:06;;;;;;;0.73;0.73;;;26.30;92.10;;;;;;5076436;28;20043;-85
2021/06/16 10:59:44;;;;;;;0.77;0.77;;;26.30;92.10;;;;;;5094669;28;20039;-86
2021/06/16 11:02:39;;;;;;;0.82;0.82;;;26.30;92.00;;;;;;5094852;28;20077;-85
2021/06/16 11:05:17;;;;;;;;;;;26.30;92.00;;;;;;5093674;28;20028;-85
2021/06/16 11:07:42;;;;;;;0.82;0.82;;;26.30;92.00;;;;;;5092835;28;19951;-86
2021/06/16 11:10:08;;;;;;;1.50;0.82;;;26.30;92.10;;;;;;5093546;28;20064;-85
2021/06/16 11:12:37;;;;;;;1.00;0.90;;;26.30;92.10;;;;;;5060057;28;20035;-87
2021/06/16 11:15:06;;;;;;;0.90;0.90;;;26.30;92.00;;;;;;5077093;28;20478;-85
2021/06/16 11:17:35;;;;;;;0.93;0.93;;;26.30;92.00;;;;;;5093430;28;20086;-85
2021/06/16 11:20:11;;;;;;;0.88;0.88;;;26.40;92.00;;;;;;5094189;28;20044;-85
2021/06/16 11:22:57;;;;;;;0.60;0.60;;;26.40;92.00;;;;;;5094343;28;20034;-85
2021/06/16 11:25:40;;;;;;;0.80;0.80;;;26.40;91.90;;;;;;5092951;28;20093;-85
2021/06/16 11:28:12;;;;;;;0.80;0.80;;;26.40;91.90;;;;;;5092685;28;20025;-85
2021/06/16 11:30:48;;;;;;;0.93;0.90;;;26.40;91.90;;;;;;5092360;28;20035;-84
2021/06/16 11:33:23;;;;;;;0.60;0.60;;;26.50;91.90;;;;;;5092789;28;20020;-84
2021/06/16 11:35:49;;;;;;;0.80;0.70;;;26.50;91.90;;;;;;5092500;28;20493;-84
2021/06/16 11:38:18;;;;;;;0.80;0.80;;;26.50;91.90;;;;;;5092616;28;20036;-85
2021/06/16 11:41:03;;;;;;;0.80;0.80;;;26.50;92.00;;;;;;5093735;28;20064;-85
2021/06/16 11:43:41;;;;;;;0.98;0.90;;;26.50;91.90;;;;;;5093718;28;20111;-85
2021/06/16 11:46:29;;;;;;;0.75;0.75;;;26.50;91.90;;;;;;5092508;28;20028;-85
2021/06/16 11:49:16;;;;;;;0.80;0.80;;;26.50;91.90;;;;;;5092839;28;20031;-85
2021/06/16 11:51:49;;;;;;;0.90;0.80;;;26.50;91.90;;;;;;5092302;28;20104;-86
2021/06/16 11:54:23;;;;;;;0.60;0.60;;;26.50;92.00;;;;;;5092702;28;20032;-85
2021/06/16 11:57:09;;;;;;;0.88;0.88;;;26.50;92.00;;;;;;5092553;28;20065;-85
2021/06/16 11:59:39;;;;;;;0.70;0.70;;;26.50;92.10;;;;;;5076514;28;20466;-85
2021/06/16 12:02:16;;;;;;;0.60;0.60;;;26.50;92.10;;;;;;5092368;28;20032;-83
2021/06/16 12:05:02;;;;;;;0.70;0.70;;;26.50;92.10;;;;;;5092200;28;20024;-86
2021/06/16 12:07:52;;;;;;;0.75;0.75;;;26.50;92.10;;;;;;5092631;28;20371;-85
2021/06/16 12:10:22;;;;;;;0.80;0.80;;;26.50;92.10;;;;;;5092413;28;20078;-85
2021/06/16 12:13:00;;;;;;;0.70;0.70;;;26.60;92.10;;;;;;5091992;28;20099;-86
2021/06/16 12:15:29;;;;;;;0.85;0.85;;;26.60;92.00;;;;;;5092437;28;20028;-85
2021/06/16 12:18:06;;;;;;;0.80;0.80;;;26.60;92.00;;;;;;5091931;28;20072;-84
2021/06/16 12:20:50;;;;;;;0.70;0.70;;;26.70;92.00;;;;;;5093102;28;20037;-85
2021/06/16 12:23:35;;;;;;;0.80;0.80;;;26.70;92.00;;;;;;5092396;28;20024;-85
2021/06/16 12:26:20;;;;;;;0.70;0.70;;;26.70;92.10;;;;;;5091925;28;20821;-85
2021/06/16 12:28:51;;;;;;;0.80;0.80;;;26.70;92.10;;;;;;5091806;28;20367;-85
2021/06/16 12:31:33;;;;;;;0.93;0.90;;;26.70;92.10;;;;;;5093613;28;20032;-85
2021/06/16 12:36:34;;;;;;;1.08;0.98;;;26.80;92.30;;;;;;5093630;28;20648;-84
2021/06/16 12:39:29;;;;;;;1.20;0.88;;;26.80;92.30;;;;;;5091958;28;20028;-84
2021/06/16 12:41:57;;;;;;;0.93;0.93;;;26.80;92.40;;;;;;5070994;28;20040;-84
2021/06/16 12:44:32;;;;;;;0.60;0.60;;;26.80;92.40;;;;;;5076077;28;20024;-84
2021/06/16 12:47:00;;;;;;;0.95;0.80;;;26.80;92.40;;;;;;5093957;28;20020;-84
2021/06/16 12:49:29;;;;;;;0.77;0.77;;;26.80;92.50;;;;;;5099457;28;20091;-85
2021/06/16 12:51:59;;;;;;;0.93;0.90;;;26.80;92.50;;;;;;5094400;28;20024;-85
2021/06/16 12:54:31;;;;;;;1.58;0.70;;;26.80;92.40;;;;;;5097192;28;20442;-84